createdAt,value
2017-10-23T00:00:05.726Z,1003.61
2017-10-23T00:01:05.818Z,1003.60
2017-10-23T00:02:05.817Z,1003.60
2017-10-23T00:03:05.806Z,1003.58
2017-10-23T00:04:05.878Z,1003.57
2017-10-23T00:05:05.878Z,1003.55
2017-10-23T00:06:05.805Z,1003.55
2017-10-23T00:07:05.939Z,1003.53
2017-10-23T00:08:05.880Z,1003.47
2017-10-23T00:09:05.810Z,1003.51
2017-10-23T00:10:05.816Z,1003.54
2017-10-23T00:11:05.841Z,1003.53
2017-10-23T00:12:05.814Z,1003.52
2017-10-23T00:13:05.883Z,1003.51
2017-10-23T00:14:05.813Z,1003.56
2017-10-23T00:15:05.887Z,1003.52
2017-10-23T00:16:05.844Z,1003.52
2017-10-23T00:17:05.917Z,1003.60
2017-10-23T00:18:05.818Z,1003.58
2017-10-23T00:19:05.825Z,1003.56
2017-10-23T00:20:05.886Z,1003.58
2017-10-23T00:21:05.893Z,1003.57
2017-10-23T00:22:05.814Z,1003.57
2017-10-23T00:23:05.893Z,1003.58
2017-10-23T00:24:05.889Z,1003.54
2017-10-23T00:25:05.824Z,1003.56
2017-10-23T00:26:05.822Z,1003.55
2017-10-23T00:27:05.897Z,1003.54
2017-10-23T00:28:05.894Z,1003.54
2017-10-23T00:29:05.827Z,1003.52
2017-10-23T00:30:05.897Z,1003.58
2017-10-23T00:31:05.826Z,1003.54
2017-10-23T00:32:05.897Z,1003.52
2017-10-23T00:33:05.825Z,1003.54
2017-10-23T00:34:05.778Z,1003.57
2017-10-23T00:35:05.827Z,1003.57
2017-10-23T00:36:05.762Z,1003.54
2017-10-23T00:37:05.880Z,1003.56
2017-10-23T00:38:05.855Z,1003.51
2017-10-23T00:39:05.789Z,1003.52
2017-10-23T00:40:05.856Z,1003.55
2017-10-23T00:41:05.859Z,1003.60
2017-10-23T00:42:05.879Z,1003.58
2017-10-23T00:43:05.764Z,1003.62
2017-10-23T00:44:05.803Z,1003.57
2017-10-23T00:45:05.804Z,1003.59
2017-10-23T00:46:05.832Z,1003.59
2017-10-23T00:47:05.902Z,1003.60
2017-10-23T00:48:05.851Z,1003.60
2017-10-23T00:49:05.830Z,1003.63
2017-10-23T00:50:05.908Z,1003.61
2017-10-23T00:51:05.772Z,1003.57
2017-10-23T00:52:05.810Z,1003.61
2017-10-23T00:53:05.805Z,1003.60
2017-10-23T00:54:05.831Z,1003.58
2017-10-23T00:55:05.851Z,1003.54
2017-10-23T00:56:05.850Z,1003.55
2017-10-23T00:57:05.763Z,1003.54
2017-10-23T00:58:05.856Z,1003.55
2017-10-23T00:59:05.853Z,1003.57
2017-10-23T01:00:05.861Z,1003.53
2017-10-23T01:01:05.761Z,1003.51
2017-10-23T01:02:05.808Z,1003.57
2017-10-23T01:03:05.913Z,1003.53
2017-10-23T01:04:05.844Z,1003.54
2017-10-23T01:05:05.913Z,1003.51
2017-10-23T01:06:05.916Z,1003.55
2017-10-23T01:07:05.841Z,1003.60
2017-10-23T01:08:05.916Z,1003.52
2017-10-23T01:09:05.846Z,1003.53
2017-10-23T01:10:05.917Z,1003.58
2017-10-23T01:12:05.918Z,1003.54
2017-10-23T01:13:05.879Z,1003.54
2017-10-23T01:14:05.848Z,1003.54
2017-10-23T01:15:05.919Z,1003.52
2017-10-23T01:16:05.852Z,1003.54
2017-10-23T01:17:05.923Z,1003.56
2017-10-23T01:18:05.854Z,1003.59
2017-10-23T01:19:05.853Z,1003.56
2017-10-23T01:20:05.922Z,1003.57
2017-10-23T01:21:05.870Z,1003.55
2017-10-23T01:22:05.923Z,1003.58
2017-10-23T01:23:05.925Z,1003.52
2017-10-23T01:24:05.932Z,1003.58
2017-10-23T01:25:05.855Z,1003.53
2017-10-23T01:26:05.927Z,1003.52
2017-10-23T01:27:05.929Z,1003.58
2017-10-23T01:28:05.870Z,1003.57
2017-10-23T01:29:05.929Z,1003.57
2017-10-23T01:30:05.869Z,1003.52
2017-10-23T01:31:05.929Z,1003.51
2017-10-23T01:32:05.862Z,1003.50
2017-10-23T01:33:05.864Z,1003.48
2017-10-23T01:34:05.866Z,1003.55
2017-10-23T01:35:05.899Z,1003.45
2017-10-23T01:36:05.933Z,1003.52
2017-10-23T01:37:05.843Z,1003.46
2017-10-23T01:38:05.988Z,1003.48
2017-10-23T01:39:05.900Z,1003.47
2017-10-23T01:40:05.798Z,1003.46
2017-10-23T01:41:05.815Z,1003.44
2017-10-23T01:42:05.906Z,1003.47
2017-10-23T01:43:05.936Z,1003.53
2017-10-23T01:44:05.868Z,1003.45
2017-10-23T01:45:05.938Z,1003.48
2017-10-23T01:46:05.870Z,1003.49
2017-10-23T01:47:05.873Z,1003.49
2017-10-23T01:48:05.941Z,1003.44
2017-10-23T01:49:05.874Z,1003.52
2017-10-23T01:50:05.943Z,1003.52
2017-10-23T01:51:05.878Z,1003.45
2017-10-23T01:52:05.887Z,1003.47
2017-10-23T01:53:05.871Z,1003.45
2017-10-23T01:54:05.943Z,1003.46
2017-10-23T01:55:05.875Z,1003.47
2017-10-23T01:56:05.945Z,1003.41
2017-10-23T01:57:05.895Z,1003.47
2017-10-23T01:58:05.874Z,1003.46
2017-10-23T01:59:05.883Z,1003.41
2017-10-23T02:00:05.945Z,1003.43
2017-10-23T02:01:05.880Z,1003.41
2017-10-23T02:02:05.948Z,1003.41
2017-10-23T02:03:05.853Z,1003.44
2017-10-23T02:04:05.947Z,1003.43
2017-10-23T02:05:05.900Z,1003.45
2017-10-23T02:06:05.899Z,1003.43
2017-10-23T02:07:05.861Z,1003.39
2017-10-23T02:08:05.878Z,1003.48
2017-10-23T02:09:05.940Z,1003.41
2017-10-23T02:10:05.861Z,1003.37
2017-10-23T02:11:05.922Z,1003.43
2017-10-23T02:12:05.819Z,1003.42
2017-10-23T02:13:05.945Z,1003.37
2017-10-23T02:14:05.925Z,1003.42
2017-10-23T02:15:05.865Z,1003.44
2017-10-23T02:16:05.866Z,1003.44
2017-10-23T02:17:05.929Z,1003.50
2017-10-23T02:18:05.945Z,1003.49
2017-10-23T02:19:05.861Z,1003.49
2017-10-23T02:20:05.947Z,1003.55
2017-10-23T02:21:05.952Z,1003.48
2017-10-23T02:22:05.822Z,1003.55
2017-10-23T02:23:05.951Z,1003.54
2017-10-23T02:24:05.896Z,1003.58
2017-10-23T02:25:05.952Z,1003.56
2017-10-23T02:26:05.955Z,1003.60
2017-10-23T02:27:05.851Z,1003.59
2017-10-23T02:28:05.933Z,1003.54
2017-10-23T02:29:05.954Z,1003.61
2017-10-23T02:30:06.064Z,1003.58
2017-10-23T02:31:05.954Z,1003.54
2017-10-23T02:32:05.951Z,1003.52
2017-10-23T02:33:05.968Z,1003.61
2017-10-23T02:34:05.966Z,1003.58
2017-10-23T02:35:05.896Z,1003.55
2017-10-23T02:36:05.969Z,1003.52
2017-10-23T02:37:05.969Z,1003.54
2017-10-23T02:38:05.923Z,1003.54
2017-10-23T02:39:05.907Z,1003.55
2017-10-23T02:40:05.969Z,1003.55
2017-10-23T02:41:05.905Z,1003.58
2017-10-23T02:42:05.976Z,1003.55
2017-10-23T02:43:05.974Z,1003.52
2017-10-23T02:44:05.908Z,1003.56
2017-10-23T02:45:05.908Z,1003.58
2017-10-23T02:46:05.880Z,1003.55
2017-10-23T02:47:05.842Z,1003.57
2017-10-23T02:48:05.967Z,1003.57
2017-10-23T02:49:05.930Z,1003.56
2017-10-23T02:50:05.858Z,1003.55
2017-10-23T02:51:05.944Z,1003.60
2017-10-23T02:52:05.965Z,1003.65
2017-10-23T02:53:05.909Z,1003.59
2017-10-23T02:54:05.917Z,1003.58
2017-10-23T02:55:05.948Z,1003.61
2017-10-23T02:56:06.076Z,1003.62
2017-10-23T02:57:05.866Z,1003.64
2017-10-23T02:58:05.885Z,1003.65
2017-10-23T02:59:05.973Z,1003.69
2017-10-23T03:00:05.889Z,1003.68
2017-10-23T03:01:05.886Z,1003.65
2017-10-23T03:02:05.887Z,1003.68
2017-10-23T03:03:05.987Z,1003.66
2017-10-23T03:04:05.923Z,1003.64
2017-10-23T03:05:05.923Z,1003.70
2017-10-23T03:06:05.854Z,1003.63
2017-10-23T03:07:05.887Z,1003.69
2017-10-23T03:08:05.982Z,1003.68
2017-10-23T03:09:05.981Z,1003.74
2017-10-23T03:10:05.990Z,1003.78
2017-10-23T03:11:05.977Z,1003.73
2017-10-23T03:12:05.900Z,1003.74
2017-10-23T03:13:05.987Z,1003.80
2017-10-23T03:14:05.924Z,1003.81
2017-10-23T03:15:05.993Z,1003.80
2017-10-23T03:16:05.927Z,1003.78
2017-10-23T03:17:05.993Z,1003.83
2017-10-23T03:18:05.924Z,1003.78
2017-10-23T03:19:05.999Z,1003.77
2017-10-23T03:20:05.946Z,1003.76
2017-10-23T03:21:05.997Z,1003.78
2017-10-23T03:22:05.932Z,1003.82
2017-10-23T03:23:05.996Z,1003.81
2017-10-23T03:24:05.963Z,1003.80
2017-10-23T03:25:05.934Z,1003.85
2017-10-23T03:26:05.997Z,1003.87
2017-10-23T03:27:06.000Z,1003.85
2017-10-23T03:28:05.934Z,1003.84
2017-10-23T03:29:06.010Z,1003.89
2017-10-23T03:30:06.004Z,1003.84
2017-10-23T03:31:06.002Z,1003.83
2017-10-23T03:32:06.002Z,1003.87
2017-10-23T03:33:06.003Z,1003.89
2017-10-23T03:34:06.004Z,1003.86
2017-10-23T03:35:06.003Z,1003.90
2017-10-23T03:36:05.938Z,1003.90
2017-10-23T03:37:06.005Z,1003.91
2017-10-23T03:38:05.941Z,1003.93
2017-10-23T03:39:06.008Z,1003.92
2017-10-23T03:40:06.007Z,1003.93
2017-10-23T03:41:06.009Z,1003.94
2017-10-23T03:42:05.941Z,1003.89
2017-10-23T03:43:06.009Z,1003.95
2017-10-23T03:44:06.030Z,1003.96
2017-10-23T03:45:06.009Z,1003.92
2017-10-23T03:46:05.957Z,1003.94
2017-10-23T03:47:06.011Z,1003.93
2017-10-23T03:48:06.016Z,1003.98
2017-10-23T03:49:05.946Z,1003.96
2017-10-23T03:50:05.949Z,1003.98
2017-10-23T03:51:05.943Z,1004.02
2017-10-23T03:52:06.017Z,1004.00
2017-10-23T03:53:05.947Z,1003.99
2017-10-23T03:54:06.016Z,1004.01
2017-10-23T03:55:05.952Z,1004.01
2017-10-23T03:56:06.025Z,1004.04
2017-10-23T03:57:05.947Z,1004.06
2017-10-23T03:58:06.017Z,1004.05
2017-10-23T03:59:05.951Z,1004.09
2017-10-23T04:00:06.025Z,1004.04
2017-10-23T04:01:05.956Z,1004.07
2017-10-23T04:02:05.919Z,1004.06
2017-10-23T04:03:05.949Z,1004.07
2017-10-23T04:04:06.021Z,1004.07
2017-10-23T04:05:05.952Z,1004.07
2017-10-23T04:06:05.952Z,1004.08
2017-10-23T04:07:06.026Z,1004.08
2017-10-23T04:08:05.960Z,1004.06
2017-10-23T04:09:05.957Z,1004.10
2017-10-23T04:10:06.026Z,1004.08
2017-10-23T04:11:05.954Z,1004.11
2017-10-23T04:12:06.029Z,1004.14
2017-10-23T04:13:05.991Z,1004.15
2017-10-23T04:14:06.029Z,1004.13
2017-10-23T04:15:05.960Z,1004.15
2017-10-23T04:16:06.029Z,1004.16
2017-10-23T04:17:06.031Z,1004.18
2017-10-23T04:18:06.031Z,1004.19
2017-10-23T04:19:06.029Z,1004.18
2017-10-23T04:20:05.968Z,1004.18
2017-10-23T04:21:06.050Z,1004.20
2017-10-23T04:22:05.965Z,1004.21
2017-10-23T04:23:06.034Z,1004.22
2017-10-23T04:24:05.917Z,1004.23
2017-10-23T04:25:05.938Z,1004.22
2017-10-23T04:26:05.936Z,1004.26
2017-10-23T04:27:05.940Z,1004.26
2017-10-23T04:28:06.006Z,1004.24
2017-10-23T04:29:06.033Z,1004.27
2017-10-23T04:30:06.041Z,1004.23
2017-10-23T04:31:05.923Z,1004.23
2017-10-23T04:32:05.942Z,1004.23
2017-10-23T04:33:05.924Z,1004.25
2017-10-23T04:34:05.976Z,1004.23
2017-10-23T04:35:06.039Z,1004.24
2017-10-23T04:36:05.974Z,1004.19
2017-10-23T04:37:05.989Z,1004.21
2017-10-23T04:38:06.043Z,1004.23
2017-10-23T04:39:05.974Z,1004.21
2017-10-23T04:40:06.043Z,1004.18
2017-10-23T04:41:05.973Z,1004.25
2017-10-23T04:42:05.977Z,1004.24
2017-10-23T04:43:06.045Z,1004.22
2017-10-23T04:44:06.005Z,1004.23
2017-10-23T04:45:05.934Z,1004.24
2017-10-23T04:46:05.997Z,1004.26
2017-10-23T04:47:05.913Z,1004.26
2017-10-23T04:48:06.011Z,1004.23
2017-10-23T04:49:05.912Z,1004.30
2017-10-23T04:50:05.942Z,1004.32
2017-10-23T04:51:06.009Z,1004.29
2017-10-23T04:52:05.939Z,1004.29
2017-10-23T04:53:05.908Z,1004.32
2017-10-23T04:54:06.051Z,1004.30
2017-10-23T04:55:05.996Z,1004.28
2017-10-23T04:56:06.053Z,1004.29
2017-10-23T04:57:05.984Z,1004.29
2017-10-23T04:58:05.944Z,1004.28
2017-10-23T04:59:05.987Z,1004.29
2017-10-23T05:00:06.058Z,1004.32
2017-10-23T05:01:06.056Z,1004.27
2017-10-23T05:02:05.989Z,1004.30
2017-10-23T05:03:05.986Z,1004.35
2017-10-23T05:04:05.933Z,1004.27
2017-10-23T05:05:05.966Z,1004.30
2017-10-23T05:06:05.961Z,1004.28
2017-10-23T05:07:05.925Z,1004.29
2017-10-23T05:08:05.931Z,1004.30
2017-10-23T05:09:05.904Z,1004.28
2017-10-23T05:10:05.968Z,1004.28
2017-10-23T05:11:05.940Z,1004.28
2017-10-23T05:12:05.989Z,1004.30
2017-10-23T05:13:05.945Z,1004.30
2017-10-23T05:14:05.988Z,1004.29
2017-10-23T05:15:05.967Z,1004.28
2017-10-23T05:16:06.062Z,1004.26
2017-10-23T05:17:06.061Z,1004.30
2017-10-23T05:18:05.935Z,1004.28
2017-10-23T05:19:06.021Z,1004.31
2017-10-23T05:20:06.043Z,1004.30
2017-10-23T05:21:05.995Z,1004.30
2017-10-23T05:22:05.959Z,1004.32
2017-10-23T05:23:05.975Z,1004.33
2017-10-23T05:24:06.071Z,1004.33
2017-10-23T05:25:06.097Z,1004.34
2017-10-23T05:26:06.003Z,1004.36
2017-10-23T05:27:06.009Z,1004.37
2017-10-23T05:28:06.090Z,1004.37
2017-10-23T05:29:06.009Z,1004.37
2017-10-23T05:30:06.076Z,1004.38
2017-10-23T05:31:06.010Z,1004.34
2017-10-23T05:32:06.075Z,1004.36
2017-10-23T05:33:06.008Z,1004.35
2017-10-23T05:34:05.970Z,1004.36
2017-10-23T05:35:05.928Z,1004.36
2017-10-23T05:36:05.929Z,1004.37
2017-10-23T05:37:05.926Z,1004.38
2017-10-23T05:38:06.026Z,1004.39
2017-10-23T05:39:05.929Z,1004.39
2017-10-23T05:40:05.980Z,1004.41
2017-10-23T05:41:05.937Z,1004.43
2017-10-23T05:42:05.930Z,1004.40
2017-10-23T05:43:05.936Z,1004.39
2017-10-23T05:44:06.082Z,1004.44
2017-10-23T05:45:06.101Z,1004.41
2017-10-23T05:46:06.063Z,1004.44
2017-10-23T05:47:06.013Z,1004.46
2017-10-23T05:48:06.017Z,1004.46
2017-10-23T05:49:06.111Z,1004.44
2017-10-23T05:50:06.098Z,1004.43
2017-10-23T05:51:06.085Z,1004.48
2017-10-23T05:52:06.087Z,1004.49
2017-10-23T05:53:06.020Z,1004.56
2017-10-23T05:54:06.092Z,1004.55
2017-10-23T05:55:06.021Z,1004.53
2017-10-23T05:56:06.096Z,1004.53
2017-10-23T05:57:06.044Z,1004.56
2017-10-23T05:58:06.089Z,1004.53
2017-10-23T05:59:06.027Z,1004.56
2017-10-23T06:00:06.090Z,1004.58
2017-10-23T06:01:06.130Z,1004.59
2017-10-23T06:02:06.092Z,1004.61
2017-10-23T06:03:06.026Z,1004.58
2017-10-23T06:04:06.112Z,1004.62
2017-10-23T06:05:06.038Z,1004.60
2017-10-23T06:06:06.028Z,1004.67
2017-10-23T06:07:06.098Z,1004.63
2017-10-23T06:08:05.976Z,1004.61
2017-10-23T06:09:06.096Z,1004.67
2017-10-23T06:10:06.031Z,1004.68
2017-10-23T06:11:05.980Z,1004.72
2017-10-23T06:12:06.037Z,1004.67
2017-10-23T06:13:06.099Z,1004.71
2017-10-23T06:14:06.037Z,1004.71
2017-10-23T06:15:06.101Z,1004.66
2017-10-23T06:16:06.059Z,1004.67
2017-10-23T06:17:06.078Z,1004.64
2017-10-23T06:18:06.102Z,1004.69
2017-10-23T06:19:06.041Z,1004.71
2017-10-23T06:20:06.105Z,1004.70
2017-10-23T06:21:06.041Z,1004.69
2017-10-23T06:22:06.032Z,1004.66
2017-10-23T06:23:06.043Z,1004.71
2017-10-23T06:24:06.063Z,1004.70
2017-10-23T06:25:06.035Z,1004.73
2017-10-23T06:26:06.009Z,1004.76
2017-10-23T06:27:06.001Z,1004.71
2017-10-23T06:28:06.035Z,1004.74
2017-10-23T06:29:06.064Z,1004.76
2017-10-23T06:30:06.032Z,1004.76
2017-10-23T06:31:06.040Z,1004.81
2017-10-23T06:32:06.060Z,1004.76
2017-10-23T06:33:05.975Z,1004.73
2017-10-23T06:34:06.101Z,1004.75
2017-10-23T06:35:06.081Z,1004.77
2017-10-23T06:36:06.044Z,1004.77
2017-10-23T06:37:05.978Z,1004.83
2017-10-23T06:38:06.014Z,1004.79
2017-10-23T06:39:06.011Z,1004.80
2017-10-23T06:40:06.067Z,1004.81
2017-10-23T06:41:06.044Z,1004.83
2017-10-23T06:42:06.018Z,1004.77
2017-10-23T06:43:06.104Z,1004.83
2017-10-23T06:44:06.014Z,1004.81
2017-10-23T06:45:06.086Z,1004.86
2017-10-23T06:46:06.025Z,1004.86
2017-10-23T06:47:06.077Z,1004.84
2017-10-23T06:48:06.117Z,1004.87
2017-10-23T06:49:06.093Z,1004.86
2017-10-23T06:50:06.122Z,1004.91
2017-10-23T06:51:06.115Z,1004.84
2017-10-23T06:52:06.052Z,1004.90
2017-10-23T06:53:06.106Z,1004.89
2017-10-23T06:54:06.060Z,1004.88
2017-10-23T06:55:06.124Z,1004.90
2017-10-23T06:56:06.052Z,1004.89
2017-10-23T06:57:06.125Z,1004.87
2017-10-23T06:58:06.139Z,1004.91
2017-10-23T06:59:06.055Z,1004.87
2017-10-23T07:00:06.127Z,1004.85
2017-10-23T07:01:06.060Z,1004.86
2017-10-23T07:02:06.130Z,1004.89
2017-10-23T07:03:06.060Z,1004.93
2017-10-23T07:04:06.094Z,1004.94
2017-10-23T07:05:06.082Z,1004.94
2017-10-23T07:06:06.041Z,1004.98
2017-10-23T07:07:06.078Z,1005.00
2017-10-23T07:08:06.116Z,1005.02
2017-10-23T07:09:06.028Z,1005.04
2017-10-23T07:10:06.095Z,1005.05
2017-10-23T07:11:06.061Z,1005.07
2017-10-23T07:12:06.096Z,1005.08
2017-10-23T07:13:06.118Z,1005.09
2017-10-23T07:14:06.075Z,1005.10
2017-10-23T07:15:06.134Z,1005.08
2017-10-23T07:16:06.066Z,1005.11
2017-10-23T07:17:06.137Z,1005.11
2017-10-23T07:18:06.093Z,1005.16
2017-10-23T07:19:06.140Z,1005.19
2017-10-23T07:20:06.047Z,1005.21
2017-10-23T07:21:06.064Z,1005.21
2017-10-23T07:22:06.140Z,1005.19
2017-10-23T07:23:06.067Z,1005.20
2017-10-23T07:24:05.946Z,1005.21
2017-10-23T07:25:05.954Z,1005.22
2017-10-23T07:26:05.982Z,1005.27
2017-10-23T07:27:06.050Z,1005.26
2017-10-23T07:28:06.044Z,1005.26
2017-10-23T07:29:05.951Z,1005.29
2017-10-23T07:30:06.015Z,1005.27
2017-10-23T07:31:06.052Z,1005.26
2017-10-23T07:32:05.952Z,1005.29
2017-10-23T07:33:06.048Z,1005.26
2017-10-23T07:34:06.034Z,1005.26
2017-10-23T07:35:06.086Z,1005.25
2017-10-23T07:36:06.053Z,1005.28
2017-10-23T07:37:06.104Z,1005.27
2017-10-23T07:38:06.104Z,1005.26
2017-10-23T07:39:06.011Z,1005.29
2017-10-23T07:40:06.110Z,1005.32
2017-10-23T07:41:06.036Z,1005.26
2017-10-23T07:42:06.076Z,1005.27
2017-10-23T07:43:06.078Z,1005.29
2017-10-23T07:44:06.029Z,1005.27
2017-10-23T07:45:06.115Z,1005.30
2017-10-23T07:46:06.155Z,1005.32
2017-10-23T07:47:06.137Z,1005.31
2017-10-23T07:48:06.143Z,1005.38
2017-10-23T07:49:06.034Z,1005.41
2017-10-23T07:50:06.121Z,1005.35
2017-10-23T07:51:06.053Z,1005.39
2017-10-23T07:52:06.038Z,1005.36
2017-10-23T07:53:06.142Z,1005.30
2017-10-23T07:54:06.119Z,1005.33
2017-10-23T07:55:06.082Z,1005.35
2017-10-23T07:56:06.143Z,1005.37
2017-10-23T07:57:06.046Z,1005.33
2017-10-23T07:58:06.151Z,1005.35
2017-10-23T07:59:06.106Z,1005.40
2017-10-23T08:00:06.085Z,1005.33
2017-10-23T08:01:06.146Z,1005.34
2017-10-23T08:02:06.074Z,1005.36
2017-10-23T08:03:06.069Z,1005.39
2017-10-23T08:04:06.011Z,1005.43
2017-10-23T08:05:06.114Z,1005.42
2017-10-23T08:06:06.094Z,1005.40
2017-10-23T08:07:06.118Z,1005.45
2017-10-23T08:08:06.067Z,1005.41
2017-10-23T08:09:06.113Z,1005.39
2017-10-23T08:10:06.112Z,1005.39
2017-10-23T08:11:06.067Z,1005.45
2017-10-23T08:12:06.117Z,1005.44
2017-10-23T08:13:06.107Z,1005.45
2017-10-23T08:14:06.099Z,1005.47
2017-10-23T08:15:06.049Z,1005.48
2017-10-23T08:16:06.098Z,1005.48
2017-10-23T08:17:06.176Z,1005.48
2017-10-23T08:18:06.105Z,1005.55
2017-10-23T08:19:06.173Z,1005.52
2017-10-23T08:20:06.098Z,1005.50
2017-10-23T08:21:06.172Z,1005.56
2017-10-23T08:22:06.104Z,1005.50
2017-10-23T08:23:06.175Z,1005.53
2017-10-23T08:24:06.103Z,1005.55
2017-10-23T08:25:06.177Z,1005.59
2017-10-23T08:26:06.181Z,1005.57
2017-10-23T08:27:06.145Z,1005.61
2017-10-23T08:28:06.089Z,1005.57
2017-10-23T08:29:06.178Z,1005.63
2017-10-23T08:30:06.144Z,1005.60
2017-10-23T08:31:06.080Z,1005.63
2017-10-23T08:32:06.083Z,1005.63
2017-10-23T08:33:06.182Z,1005.59
2017-10-23T08:34:06.109Z,1005.63
2017-10-23T08:35:06.113Z,1005.58
2017-10-23T08:36:06.187Z,1005.60
2017-10-23T08:37:06.184Z,1005.58
2017-10-23T08:38:06.109Z,1005.60
2017-10-23T08:39:06.189Z,1005.60
2017-10-23T08:40:06.118Z,1005.60
2017-10-23T08:41:06.188Z,1005.57
2017-10-23T08:42:06.116Z,1005.62
2017-10-23T08:43:06.115Z,1005.61
2017-10-23T08:44:06.191Z,1005.63
2017-10-23T08:45:06.122Z,1005.60
2017-10-23T08:46:06.191Z,1005.63
2017-10-23T08:47:06.220Z,1005.65
2017-10-23T08:48:06.195Z,1005.64
2017-10-23T08:49:06.191Z,1005.70
2017-10-23T08:50:06.155Z,1005.66
2017-10-23T08:51:06.194Z,1005.64
2017-10-23T08:52:06.118Z,1005.65
2017-10-23T08:53:06.196Z,1005.65
2017-10-23T08:54:06.119Z,1005.64
2017-10-23T08:55:06.195Z,1005.64
2017-10-23T08:56:06.129Z,1005.63
2017-10-23T08:57:06.197Z,1005.65
2017-10-23T08:58:06.198Z,1005.72
2017-10-23T08:59:06.198Z,1005.64
2017-10-23T09:00:06.198Z,1005.72
2017-10-23T09:01:06.124Z,1005.74
2017-10-23T09:02:06.201Z,1005.73
2017-10-23T09:03:06.127Z,1005.69
2017-10-23T09:04:06.153Z,1005.75
2017-10-23T09:05:06.091Z,1005.86
2017-10-23T09:06:06.150Z,1005.70
2017-10-23T09:07:06.101Z,1005.70
2017-10-23T09:08:06.126Z,1005.71
2017-10-23T09:09:06.106Z,1005.72
2017-10-23T09:10:06.135Z,1005.74
2017-10-23T09:11:06.191Z,1005.76
2017-10-23T09:12:06.156Z,1005.79
2017-10-23T09:13:06.206Z,1005.73
2017-10-23T09:14:06.130Z,1005.74
2017-10-23T09:15:06.210Z,1005.78
2017-10-23T09:16:06.134Z,1005.77
2017-10-23T09:17:06.209Z,1005.77
2017-10-23T09:18:06.139Z,1005.78
2017-10-23T09:19:06.137Z,1005.79
2017-10-23T09:20:06.214Z,1005.77
2017-10-23T09:21:06.143Z,1005.80
2017-10-23T09:22:06.211Z,1005.77
2017-10-23T09:23:06.214Z,1005.86
2017-10-23T09:24:06.145Z,1005.82
2017-10-23T09:25:06.218Z,1005.83
2017-10-23T09:26:06.145Z,1005.83
2017-10-23T09:27:06.091Z,1005.76
2017-10-23T09:28:06.215Z,1005.78
2017-10-23T09:29:06.211Z,1005.77
2017-10-23T09:30:06.140Z,1005.74
2017-10-23T09:31:06.217Z,1005.79
2017-10-23T09:32:06.180Z,1005.72
2017-10-23T09:33:06.218Z,1005.77
2017-10-23T09:34:06.153Z,1005.79
2017-10-23T09:35:06.168Z,1005.82
2017-10-23T09:36:06.223Z,1005.79
2017-10-23T09:37:06.145Z,1005.79
2017-10-23T09:38:06.120Z,1005.78
2017-10-23T09:39:06.220Z,1005.79
2017-10-23T09:40:06.103Z,1005.77
2017-10-23T09:41:06.186Z,1005.81
2017-10-23T09:42:06.172Z,1005.73
2017-10-23T09:43:06.223Z,1005.88
2017-10-23T09:44:06.124Z,1005.86
2017-10-23T09:45:06.114Z,1005.84
2017-10-23T09:46:06.184Z,1005.90
2017-10-23T09:47:06.093Z,1005.85
2017-10-23T09:48:06.152Z,1005.86
2017-10-23T09:49:06.190Z,1005.86
2017-10-23T09:50:06.143Z,1005.85
2017-10-23T09:51:06.155Z,1005.82
2017-10-23T09:52:06.117Z,1005.85
2017-10-23T09:53:06.138Z,1005.89
2017-10-23T09:54:06.122Z,1005.88
2017-10-23T09:55:06.236Z,1005.82
2017-10-23T09:56:06.163Z,1005.86
2017-10-23T09:57:06.159Z,1005.88
2017-10-23T09:58:06.229Z,1005.89
2017-10-23T09:59:06.238Z,1005.92
2017-10-23T10:00:06.169Z,1005.89
2017-10-23T10:01:06.235Z,1005.90
2017-10-23T10:02:06.235Z,1005.91
2017-10-23T10:03:06.163Z,1005.99
2017-10-23T10:04:06.164Z,1005.96
2017-10-23T10:05:06.180Z,1005.99
2017-10-23T10:06:06.182Z,1005.94
2017-10-23T10:07:06.184Z,1005.95
2017-10-23T10:08:06.092Z,1005.98
2017-10-23T10:09:06.136Z,1005.93
2017-10-23T10:10:06.095Z,1005.92
2017-10-23T10:11:06.193Z,1005.94
2017-10-23T10:12:06.142Z,1005.93
2017-10-23T10:13:06.184Z,1005.91
2017-10-23T10:14:06.200Z,1005.93
2017-10-23T10:15:06.207Z,1005.90
2017-10-23T10:16:06.231Z,1005.90
2017-10-23T10:17:06.155Z,1005.88
2017-10-23T10:18:06.189Z,1005.92
2017-10-23T10:19:06.129Z,1005.90
2017-10-23T10:20:06.231Z,1005.95
2017-10-23T10:21:06.210Z,1005.97
2017-10-23T10:22:06.125Z,1005.94
2017-10-23T10:23:06.147Z,1005.96
2017-10-23T10:24:06.245Z,1005.98
2017-10-23T10:25:06.118Z,1005.94
2017-10-23T10:26:06.130Z,1005.97
2017-10-23T10:27:06.212Z,1005.99
2017-10-23T10:28:06.153Z,1005.95
2017-10-23T10:29:06.103Z,1006.03
2017-10-23T10:30:06.227Z,1006.00
2017-10-23T10:31:06.218Z,1005.99
2017-10-23T10:32:06.217Z,1006.01
2017-10-23T10:33:06.234Z,1006.01
2017-10-23T10:34:06.214Z,1005.98
2017-10-23T10:35:06.185Z,1006.00
2017-10-23T10:36:06.241Z,1006.03
2017-10-23T10:37:06.259Z,1006.02
2017-10-23T10:38:06.182Z,1006.00
2017-10-23T10:39:06.258Z,1006.01
2017-10-23T10:40:06.183Z,1006.06
2017-10-23T10:41:06.262Z,1006.07
2017-10-23T10:42:06.186Z,1006.05
2017-10-23T10:43:06.152Z,1006.02
2017-10-23T10:44:06.262Z,1006.04
2017-10-23T10:45:06.197Z,1006.05
2017-10-23T10:46:06.263Z,1006.06
2017-10-23T10:47:06.265Z,1006.04
2017-10-23T10:48:06.190Z,1006.06
2017-10-23T10:49:06.265Z,1006.09
2017-10-23T10:50:06.191Z,1006.10
2017-10-23T10:51:06.266Z,1006.11
2017-10-23T10:52:06.268Z,1006.15
2017-10-23T10:53:06.203Z,1006.10
2017-10-23T10:54:06.269Z,1006.13
2017-10-23T10:55:06.215Z,1006.15
2017-10-23T10:56:06.170Z,1006.14
2017-10-23T10:57:06.191Z,1006.16
2017-10-23T10:58:06.308Z,1006.14
2017-10-23T10:59:06.153Z,1006.14
2017-10-23T11:00:06.197Z,1006.15
2017-10-23T11:01:06.236Z,1006.16
2017-10-23T11:02:06.171Z,1006.12
2017-10-23T11:03:06.215Z,1006.16
2017-10-23T11:04:06.234Z,1006.16
2017-10-23T11:05:06.274Z,1006.14
2017-10-23T11:06:06.203Z,1006.11
2017-10-23T11:07:06.280Z,1006.15
2017-10-23T11:08:06.206Z,1006.11
2017-10-23T11:09:06.276Z,1006.14
2017-10-23T11:10:06.210Z,1006.13
2017-10-23T11:11:06.277Z,1006.08
2017-10-23T11:12:06.280Z,1006.11
2017-10-23T11:13:06.208Z,1006.10
2017-10-23T11:14:06.281Z,1006.13
2017-10-23T11:15:06.207Z,1006.06
2017-10-23T11:16:06.222Z,1006.10
2017-10-23T11:17:06.224Z,1006.12
2017-10-23T11:18:06.266Z,1006.11
2017-10-23T11:19:06.268Z,1006.08
2017-10-23T11:20:06.281Z,1006.11
2017-10-23T11:21:06.251Z,1006.11
2017-10-23T11:22:06.279Z,1006.17
2017-10-23T11:23:06.233Z,1006.17
2017-10-23T11:24:06.284Z,1006.15
2017-10-23T11:25:06.234Z,1006.19
2017-10-23T11:26:06.189Z,1006.17
2017-10-23T11:27:06.286Z,1006.21
2017-10-23T11:28:06.278Z,1006.15
2017-10-23T11:29:06.275Z,1006.18
2017-10-23T11:30:06.277Z,1006.21
2017-10-23T11:31:06.286Z,1006.20
2017-10-23T11:32:06.216Z,1006.19
2017-10-23T11:33:06.151Z,1006.21
2017-10-23T11:34:06.279Z,1006.20
2017-10-23T11:35:06.220Z,1006.14
2017-10-23T11:36:06.296Z,1006.19
2017-10-23T11:37:06.222Z,1006.23
2017-10-23T11:38:06.303Z,1006.24
2017-10-23T11:39:06.219Z,1006.20
2017-10-23T11:40:06.294Z,1006.21
2017-10-23T11:41:06.228Z,1006.20
2017-10-23T11:42:06.300Z,1006.21
2017-10-23T11:43:06.297Z,1006.22
2017-10-23T11:44:06.224Z,1006.21
2017-10-23T11:45:06.188Z,1006.19
2017-10-23T11:46:06.189Z,1006.19
2017-10-23T11:47:06.253Z,1006.18
2017-10-23T11:48:06.145Z,1006.16
2017-10-23T11:49:06.232Z,1006.13
2017-10-23T11:50:06.156Z,1006.08
2017-10-23T11:51:06.124Z,1006.09
2017-10-23T11:52:06.129Z,1006.13
2017-10-23T11:53:06.151Z,1006.14
2017-10-23T11:54:06.234Z,1006.13
2017-10-23T11:55:06.239Z,1006.11
2017-10-23T11:56:06.229Z,1006.19
2017-10-23T11:57:06.305Z,1006.15
2017-10-23T11:58:06.230Z,1006.16
2017-10-23T11:59:06.311Z,1006.18
2017-10-23T12:00:06.234Z,1006.15
2017-10-23T12:01:06.310Z,1006.20
2017-10-23T12:02:06.240Z,1006.17
2017-10-23T12:03:06.317Z,1006.16
2017-10-23T12:04:06.240Z,1006.17
2017-10-23T12:05:06.280Z,1006.17
2017-10-23T12:06:06.255Z,1006.15